sensor_id;sensor_type;location;lat;lon;timestamp;P1;durP1;ratioP1;P2;durP2;ratioP2
18190;SDS011;47004;51.366;12.348;2024-01-30T00:00:15;7.23;;;3.90;;
18190;SDS011;47004;51.366;12.348;2024-01-30T00:02:18;6.40;;;2.90;;
18190;SDS011;47004;51.366;12.348;2024-01-30T00:04:19;7.23;;;3.30;;
18190;SDS011;47004;51.366;12.348;2024-01-30T00:06:20;6.57;;;3.30;;
18190;SDS011;47004;51.366;12.348;2024-01-30T00:08:22;8.50;;;3.33;;
18190;SDS011;47004;51.366;12.348;2024-01-30T00:10:24;6.37;;;3.30;;
18190;SDS011;47004;51.366;12.348;2024-01-30T00:12:28;7.47;;;4.03;;
18190;SDS011;47004;51.366;12.348;2024-01-30T00:14:32;10.20;;;3.73;;
18190;SDS011;47004;51.366;12.348;2024-01-30T00:16:34;8.93;;;4.10;;
18190;SDS011;47004;51.366;12.348;2024-01-30T00:18:36;6.93;;;3.40;;
18190;SDS011;47004;51.366;12.348;2024-01-30T00:20:39;8.33;;;3.30;;
18190;SDS011;47004;51.366;12.348;2024-01-30T00:22:43;6.20;;;3.17;;
18190;SDS011;47004;51.366;12.348;2024-01-30T00:24:44;5.93;;;3.23;;
18190;SDS011;47004;51.366;12.348;2024-01-30T00:26:45;6.03;;;3.03;;
18190;SDS011;47004;51.366;12.348;2024-01-30T00:28:49;6.80;;;3.53;;
18190;SDS011;47004;51.366;12.348;2024-01-30T00:30:50;6.33;;;3.10;;
18190;SDS011;47004;51.366;12.348;2024-01-30T00:32:53;6.80;;;3.30;;
18190;SDS011;47004;51.366;12.348;2024-01-30T00:34:55;8.87;;;3.50;;
18190;SDS011;47004;51.366;12.348;2024-01-30T00:36:57;7.93;;;3.80;;
18190;SDS011;47004;51.366;12.348;2024-01-30T00:38:58;6.40;;;3.33;;
18190;SDS011;47004;51.366;12.348;2024-01-30T00:41:00;7.03;;;3.50;;
18190;SDS011;47004;51.366;12.348;2024-01-30T00:43:02;8.53;;;3.43;;
18190;SDS011;47004;51.366;12.348;2024-01-30T00:45:05;8.40;;;3.20;;
18190;SDS011;47004;51.366;12.348;2024-01-30T00:47:11;6.70;;;3.63;;
18190;SDS011;47004;51.366;12.348;2024-01-30T00:49:12;7.43;;;3.73;;
18190;SDS011;47004;51.366;12.348;2024-01-30T00:51:14;5.77;;;3.10;;
18190;SDS011;47004;51.366;12.348;2024-01-30T00:53:19;6.73;;;3.27;;
18190;SDS011;47004;51.366;12.348;2024-01-30T00:55:21;6.97;;;3.33;;
18190;SDS011;47004;51.366;12.348;2024-01-30T00:57:23;8.23;;;3.20;;
18190;SDS011;47004;51.366;12.348;2024-01-30T00:59:27;6.00;;;3.10;;
18190;SDS011;47004;51.366;12.348;2024-01-30T01:01:30;7.17;;;3.17;;
18190;SDS011;47004;51.366;12.348;2024-01-30T01:03:32;6.93;;;3.10;;
18190;SDS011;47004;51.366;12.348;2024-01-30T01:05:34;7.27;;;3.17;;
18190;SDS011;47004;51.366;12.348;2024-01-30T01:07:36;5.70;;;3.20;;
18190;SDS011;47004;51.366;12.348;2024-01-30T01:09:38;6.67;;;3.40;;
18190;SDS011;47004;51.366;12.348;2024-01-30T01:11:39;5.63;;;2.83;;
18190;SDS011;47004;51.366;12.348;2024-01-30T01:13:41;7.07;;;3.10;;
18190;SDS011;47004;51.366;12.348;2024-01-30T01:15:42;4.93;;;2.73;;
18190;SDS011;47004;51.366;12.348;2024-01-30T01:17:45;5.40;;;2.70;;
18190;SDS011;47004;51.366;12.348;2024-01-30T01:19:46;6.70;;;2.87;;
18190;SDS011;47004;51.366;12.348;2024-01-30T01:21:48;5.50;;;3.00;;
18190;SDS011;47004;51.366;12.348;2024-01-30T01:23:50;6.00;;;2.93;;
18190;SDS011;47004;51.366;12.348;2024-01-30T01:25:52;5.13;;;2.73;;
18190;SDS011;47004;51.366;12.348;2024-01-30T01:27:54;7.00;;;3.37;;
18190;SDS011;47004;51.366;12.348;2024-01-30T01:29:56;11.17;;;3.10;;
18190;SDS011;47004;51.366;12.348;2024-01-30T01:31:57;6.27;;;3.20;;
18190;SDS011;47004;51.366;12.348;2024-01-30T01:34:00;6.23;;;2.90;;
18190;SDS011;47004;51.366;12.348;2024-01-30T01:36:01;7.10;;;3.27;;
18190;SDS011;47004;51.366;12.348;2024-01-30T01:38:03;6.70;;;3.27;;
18190;SDS011;47004;51.366;12.348;2024-01-30T01:40:06;7.23;;;3.00;;
18190;SDS011;47004;51.366;12.348;2024-01-30T01:42:08;7.93;;;3.00;;
18190;SDS011;47004;51.366;12.348;2024-01-30T01:44:09;7.43;;;2.90;;
18190;SDS011;47004;51.366;12.348;2024-01-30T01:46:11;6.57;;;3.27;;
18190;SDS011;47004;51.366;12.348;2024-01-30T01:48:14;5.40;;;2.93;;
18190;SDS011;47004;51.366;12.348;2024-01-30T01:50:17;6.40;;;3.10;;
18190;SDS011;47004;51.366;12.348;2024-01-30T01:52:20;6.10;;;3.17;;
18190;SDS011;47004;51.366;12.348;2024-01-30T01:54:22;5.13;;;2.77;;
18190;SDS011;47004;51.366;12.348;2024-01-30T01:56:27;8.57;;;3.10;;
18190;SDS011;47004;51.366;12.348;2024-01-30T01:58:30;5.90;;;2.83;;
18190;SDS011;47004;51.366;12.348;2024-01-30T02:00:32;9.07;;;3.70;;
18190;SDS011;47004;51.366;12.348;2024-01-30T02:02:34;6.43;;;3.53;;
18190;SDS011;47004;51.366;12.348;2024-01-30T02:04:36;7.87;;;2.73;;
18190;SDS011;47004;51.366;12.348;2024-01-30T02:06:39;5.87;;;3.00;;
18190;SDS011;47004;51.366;12.348;2024-01-30T02:08:41;9.23;;;3.23;;
18190;SDS011;47004;51.366;12.348;2024-01-30T02:10:44;6.77;;;3.00;;
18190;SDS011;47004;51.366;12.348;2024-01-30T02:12:45;5.13;;;3.00;;
18190;SDS011;47004;51.366;12.348;2024-01-30T02:14:47;6.27;;;3.00;;
18190;SDS011;47004;51.366;12.348;2024-01-30T02:16:50;6.93;;;3.27;;
18190;SDS011;47004;51.366;12.348;2024-01-30T02:18:51;6.70;;;3.00;;
18190;SDS011;47004;51.366;12.348;2024-01-30T02:20:54;6.47;;;2.73;;
18190;SDS011;47004;51.366;12.348;2024-01-30T02:23:03;9.40;;;3.20;;
18190;SDS011;47004;51.366;12.348;2024-01-30T02:25:06;6.77;;;3.13;;
18190;SDS011;47004;51.366;12.348;2024-01-30T02:27:09;5.63;;;3.10;;
18190;SDS011;47004;51.366;12.348;2024-01-30T02:29:10;5.57;;;2.93;;
18190;SDS011;47004;51.366;12.348;2024-01-30T02:31:12;5.87;;;3.10;;
18190;SDS011;47004;51.366;12.348;2024-01-30T02:33:14;7.87;;;3.13;;
18190;SDS011;47004;51.366;12.348;2024-01-30T02:35:16;9.67;;;3.73;;
18190;SDS011;47004;51.366;12.348;2024-01-30T02:37:20;6.33;;;3.23;;
18190;SDS011;47004;51.366;12.348;2024-01-30T02:39:23;8.40;;;3.30;;
18190;SDS011;47004;51.366;12.348;2024-01-30T02:41:25;6.10;;;3.03;;
18190;SDS011;47004;51.366;12.348;2024-01-30T02:43:27;7.33;;;3.30;;
18190;SDS011;47004;51.366;12.348;2024-01-30T02:45:29;4.70;;;2.63;;
18190;SDS011;47004;51.366;12.348;2024-01-30T02:47:31;7.93;;;3.00;;
18190;SDS011;47004;51.366;12.348;2024-01-30T02:49:33;8.30;;;3.20;;
18190;SDS011;47004;51.366;12.348;2024-01-30T02:51:35;5.93;;;2.93;;
18190;SDS011;47004;51.366;12.348;2024-01-30T02:53:37;6.10;;;3.10;;
18190;SDS011;47004;51.366;12.348;2024-01-30T02:55:40;5.77;;;3.00;;
18190;SDS011;47004;51.366;12.348;2024-01-30T02:57:41;8.50;;;3.60;;
18190;SDS011;47004;51.366;12.348;2024-01-30T02:59:43;7.10;;;3.13;;
18190;SDS011;47004;51.366;12.348;2024-01-30T03:01:44;9.27;;;3.60;;
18190;SDS011;47004;51.366;12.348;2024-01-30T03:03:46;5.97;;;2.83;;
18190;SDS011;47004;51.366;12.348;2024-01-30T03:05:48;6.67;;;2.87;;
18190;SDS011;47004;51.366;12.348;2024-01-30T03:07:50;13.27;;;3.57;;
18190;SDS011;47004;51.366;12.348;2024-01-30T03:09:51;8.37;;;3.43;;
18190;SDS011;47004;51.366;12.348;2024-01-30T03:11:56;7.07;;;3.20;;
18190;SDS011;47004;51.366;12.348;2024-01-30T03:13:58;5.23;;;2.73;;
18190;SDS011;47004;51.366;12.348;2024-01-30T03:16:00;8.33;;;2.87;;
18190;SDS011;47004;51.366;12.348;2024-01-30T03:18:03;7.90;;;3.07;;
18190;SDS011;47004;51.366;12.348;2024-01-30T03:20:05;8.13;;;3.13;;
18190;SDS011;47004;51.366;12.348;2024-01-30T03:22:09;4.30;;;2.67;;
18190;SDS011;47004;51.366;12.348;2024-01-30T03:24:10;8.80;;;3.30;;
18190;SDS011;47004;51.366;12.348;2024-01-30T03:26:12;7.27;;;2.87;;
18190;SDS011;47004;51.366;12.348;2024-01-30T03:28:18;5.20;;;3.00;;
18190;SDS011;47004;51.366;12.348;2024-01-30T03:30:20;8.83;;;3.60;;
18190;SDS011;47004;51.366;12.348;2024-01-30T03:32:22;7.87;;;3.67;;
18190;SDS011;47004;51.366;12.348;2024-01-30T03:34:23;5.43;;;3.03;;
18190;SDS011;47004;51.366;12.348;2024-01-30T03:36:25;8.63;;;3.63;;
18190;SDS011;47004;51.366;12.348;2024-01-30T03:38:27;6.17;;;3.20;;
18190;SDS011;47004;51.366;12.348;2024-01-30T03:40:29;5.33;;;3.07;;
18190;SDS011;47004;51.366;12.348;2024-01-30T03:42:30;6.83;;;3.20;;
18190;SDS011;47004;51.366;12.348;2024-01-30T03:44:34;6.60;;;3.33;;
18190;SDS011;47004;51.366;12.348;2024-01-30T03:46:35;8.43;;;3.60;;
18190;SDS011;47004;51.366;12.348;2024-01-30T03:48:36;8.13;;;3.27;;
18190;SDS011;47004;51.366;12.348;2024-01-30T03:50:39;6.40;;;3.60;;
18190;SDS011;47004;51.366;12.348;2024-01-30T03:52:41;7.73;;;3.40;;
18190;SDS011;47004;51.366;12.348;2024-01-30T03:54:43;6.70;;;3.30;;
18190;SDS011;47004;51.366;12.348;2024-01-30T03:56:44;7.13;;;3.80;;
18190;SDS011;47004;51.366;12.348;2024-01-30T03:58:46;9.10;;;3.60;;
18190;SDS011;47004;51.366;12.348;2024-01-30T04:00:50;6.97;;;3.40;;
18190;SDS011;47004;51.366;12.348;2024-01-30T04:02:53;5.47;;;2.73;;
18190;SDS011;47004;51.366;12.348;2024-01-30T04:04:54;8.40;;;3.53;;
18190;SDS011;47004;51.366;12.348;2024-01-30T04:06:55;8.57;;;3.80;;
18190;SDS011;47004;51.366;12.348;2024-01-30T04:08:57;8.13;;;3.67;;
18190;SDS011;47004;51.366;12.348;2024-01-30T04:11:02;5.07;;;3.10;;
18190;SDS011;47004;51.366;12.348;2024-01-30T04:13:04;8.43;;;3.57;;
18190;SDS011;47004;51.366;12.348;2024-01-30T04:15:05;10.30;;;3.60;;
18190;SDS011;47004;51.366;12.348;2024-01-30T04:17:09;8.27;;;3.70;;
18190;SDS011;47004;51.366;12.348;2024-01-30T04:19:11;8.80;;;3.70;;
18190;SDS011;47004;51.366;12.348;2024-01-30T04:21:12;5.90;;;3.40;;
18190;SDS011;47004;51.366;12.348;2024-01-30T04:23:14;7.17;;;3.47;;
18190;SDS011;47004;51.366;12.348;2024-01-30T04:25:15;9.97;;;3.83;;
18190;SDS011;47004;51.366;12.348;2024-01-30T04:27:17;8.37;;;3.87;;
18190;SDS011;47004;51.366;12.348;2024-01-30T04:29:19;5.77;;;3.40;;
18190;SDS011;47004;51.366;12.348;2024-01-30T04:31:22;6.67;;;3.60;;
18190;SDS011;47004;51.366;12.348;2024-01-30T04:33:25;8.30;;;3.70;;
18190;SDS011;47004;51.366;12.348;2024-01-30T04:35:27;8.10;;;3.60;;
18190;SDS011;47004;51.366;12.348;2024-01-30T04:37:29;5.80;;;3.40;;
18190;SDS011;47004;51.366;12.348;2024-01-30T04:39:32;7.77;;;3.80;;
18190;SDS011;47004;51.366;12.348;2024-01-30T04:41:34;8.17;;;3.23;;
18190;SDS011;47004;51.366;12.348;2024-01-30T04:43:35;11.53;;;4.07;;
18190;SDS011;47004;51.366;12.348;2024-01-30T04:45:37;9.53;;;3.87;;
18190;SDS011;47004;51.366;12.348;2024-01-30T04:47:39;7.10;;;3.83;;
18190;SDS011;47004;51.366;12.348;2024-01-30T04:49:42;6.10;;;3.23;;
18190;SDS011;47004;51.366;12.348;2024-01-30T04:51:44;6.40;;;3.30;;
18190;SDS011;47004;51.366;12.348;2024-01-30T04:53:46;9.23;;;3.67;;
18190;SDS011;47004;51.366;12.348;2024-01-30T04:55:48;8.03;;;3.53;;
18190;SDS011;47004;51.366;12.348;2024-01-30T04:57:49;8.67;;;4.13;;
18190;SDS011;47004;51.366;12.348;2024-01-30T04:59:51;8.30;;;3.70;;
18190;SDS011;47004;51.366;12.348;2024-01-30T05:01:54;8.23;;;3.60;;
18190;SDS011;47004;51.366;12.348;2024-01-30T05:03:56;9.63;;;3.70;;
18190;SDS011;47004;51.366;12.348;2024-01-30T05:05:59;6.73;;;3.63;;
18190;SDS011;47004;51.366;12.348;2024-01-30T05:08:01;5.80;;;3.50;;
18190;SDS011;47004;51.366;12.348;2024-01-30T05:10:03;8.80;;;3.67;;
18190;SDS011;47004;51.366;12.348;2024-01-30T05:12:06;7.07;;;3.50;;
18190;SDS011;47004;51.366;12.348;2024-01-30T05:14:09;7.90;;;3.93;;
18190;SDS011;47004;51.366;12.348;2024-01-30T05:16:11;11.33;;;5.07;;
18190;SDS011;47004;51.366;12.348;2024-01-30T05:18:13;12.77;;;5.20;;
18190;SDS011;47004;51.366;12.348;2024-01-30T05:20:15;7.00;;;3.60;;
18190;SDS011;47004;51.366;12.348;2024-01-30T05:22:19;8.70;;;3.90;;
18190;SDS011;47004;51.366;12.348;2024-01-30T05:24:22;7.47;;;3.70;;
18190;SDS011;47004;51.366;12.348;2024-01-30T05:26:22;8.70;;;3.80;;
18190;SDS011;47004;51.366;12.348;2024-01-30T05:28:24;6.70;;;3.47;;
18190;SDS011;47004;51.366;12.348;2024-01-30T05:30:26;6.90;;;3.83;;
18190;SDS011;47004;51.366;12.348;2024-01-30T05:32:28;8.40;;;3.87;;
18190;SDS011;47004;51.366;12.348;2024-01-30T05:34:30;7.50;;;3.70;;
18190;SDS011;47004;51.366;12.348;2024-01-30T05:36:32;7.60;;;3.43;;
18190;SDS011;47004;51.366;12.348;2024-01-30T05:38:36;7.00;;;3.70;;
18190;SDS011;47004;51.366;12.348;2024-01-30T05:40:38;7.20;;;3.67;;
18190;SDS011;47004;51.366;12.348;2024-01-30T05:42:41;12.13;;;3.83;;
18190;SDS011;47004;51.366;12.348;2024-01-30T05:44:42;7.40;;;3.70;;
18190;SDS011;47004;51.366;12.348;2024-01-30T05:46:46;9.90;;;4.20;;
18190;SDS011;47004;51.366;12.348;2024-01-30T05:48:48;7.47;;;3.80;;
18190;SDS011;47004;51.366;12.348;2024-01-30T05:50:50;7.47;;;3.53;;
18190;SDS011;47004;51.366;12.348;2024-01-30T05:52:52;10.23;;;4.00;;
18190;SDS011;47004;51.366;12.348;2024-01-30T05:54:55;8.13;;;3.73;;
18190;SDS011;47004;51.366;12.348;2024-01-30T05:56:57;7.47;;;3.67;;
18190;SDS011;47004;51.366;12.348;2024-01-30T05:58:59;9.03;;;3.97;;
18190;SDS011;47004;51.366;12.348;2024-01-30T06:01:00;7.77;;;3.80;;
18190;SDS011;47004;51.366;12.348;2024-01-30T06:03:02;10.33;;;4.13;;
18190;SDS011;47004;51.366;12.348;2024-01-30T06:05:05;6.40;;;3.90;;
18190;SDS011;47004;51.366;12.348;2024-01-30T06:07:07;7.47;;;3.97;;
18190;SDS011;47004;51.366;12.348;2024-01-30T06:09:11;7.77;;;3.90;;
18190;SDS011;47004;51.366;12.348;2024-01-30T06:11:15;9.40;;;4.03;;
18190;SDS011;47004;51.366;12.348;2024-01-30T06:13:17;8.67;;;3.93;;
18190;SDS011;47004;51.366;12.348;2024-01-30T06:15:18;7.67;;;4.13;;
18190;SDS011;47004;51.366;12.348;2024-01-30T06:17:20;9.33;;;4.43;;
18190;SDS011;47004;51.366;12.348;2024-01-30T06:19:22;11.53;;;4.33;;
18190;SDS011;47004;51.366;12.348;2024-01-30T06:21:24;14.93;;;4.60;;
18190;SDS011;47004;51.366;12.348;2024-01-30T06:23:26;9.83;;;4.20;;
18190;SDS011;47004;51.366;12.348;2024-01-30T06:25:28;9.70;;;4.20;;
18190;SDS011;47004;51.366;12.348;2024-01-30T06:27:32;9.17;;;4.03;;
18190;SDS011;47004;51.366;12.348;2024-01-30T06:29:33;8.23;;;3.80;;
18190;SDS011;47004;51.366;12.348;2024-01-30T06:31:39;9.10;;;4.50;;
18190;SDS011;47004;51.366;12.348;2024-01-30T06:33:41;7.97;;;4.00;;
18190;SDS011;47004;51.366;12.348;2024-01-30T06:35:46;9.87;;;4.40;;
18190;SDS011;47004;51.366;12.348;2024-01-30T06:37:48;8.30;;;4.30;;
18190;SDS011;47004;51.366;12.348;2024-01-30T06:39:50;10.40;;;4.37;;
18190;SDS011;47004;51.366;12.348;2024-01-30T06:41:52;8.73;;;4.07;;
18190;SDS011;47004;51.366;12.348;2024-01-30T06:43:55;8.57;;;3.83;;
18190;SDS011;47004;51.366;12.348;2024-01-30T06:45:59;7.77;;;4.10;;
18190;SDS011;47004;51.366;12.348;2024-01-30T06:48:01;8.23;;;4.13;;
18190;SDS011;47004;51.366;12.348;2024-01-30T06:50:03;8.53;;;3.60;;
18190;SDS011;47004;51.366;12.348;2024-01-30T06:52:06;8.63;;;4.03;;
18190;SDS011;47004;51.366;12.348;2024-01-30T06:54:08;7.93;;;3.97;;
18190;SDS011;47004;51.366;12.348;2024-01-30T06:56:10;7.90;;;3.93;;
18190;SDS011;47004;51.366;12.348;2024-01-30T06:58:12;7.23;;;3.80;;
18190;SDS011;47004;51.366;12.348;2024-01-30T07:00:16;8.50;;;4.00;;
18190;SDS011;47004;51.366;12.348;2024-01-30T07:02:19;13.63;;;4.07;;
18190;SDS011;47004;51.366;12.348;2024-01-30T07:04:20;8.40;;;4.17;;
18190;SDS011;47004;51.366;12.348;2024-01-30T07:06:22;9.20;;;4.07;;
18190;SDS011;47004;51.366;12.348;2024-01-30T07:08:24;8.70;;;4.73;;
18190;SDS011;47004;51.366;12.348;2024-01-30T07:10:26;7.83;;;3.87;;
18190;SDS011;47004;51.366;12.348;2024-01-30T07:12:27;8.43;;;3.90;;
18190;SDS011;47004;51.366;12.348;2024-01-30T07:14:30;7.33;;;3.87;;
18190;SDS011;47004;51.366;12.348;2024-01-30T07:16:33;10.10;;;3.90;;
18190;SDS011;47004;51.366;12.348;2024-01-30T07:18:35;9.20;;;4.30;;
18190;SDS011;47004;51.366;12.348;2024-01-30T07:20:37;11.43;;;3.83;;
18190;SDS011;47004;51.366;12.348;2024-01-30T07:22:42;12.47;;;4.73;;
18190;SDS011;47004;51.366;12.348;2024-01-30T07:24:45;10.57;;;4.57;;
18190;SDS011;47004;51.366;12.348;2024-01-30T07:26:48;6.97;;;3.57;;
18190;SDS011;47004;51.366;12.348;2024-01-30T07:28:50;9.60;;;4.10;;
18190;SDS011;47004;51.366;12.348;2024-01-30T07:30:52;7.73;;;4.40;;
18190;SDS011;47004;51.366;12.348;2024-01-30T07:32:55;10.73;;;3.80;;
18190;SDS011;47004;51.366;12.348;2024-01-30T07:34:57;9.20;;;3.80;;
18190;SDS011;47004;51.366;12.348;2024-01-30T07:36:59;12.80;;;4.87;;
18190;SDS011;47004;51.366;12.348;2024-01-30T07:39:01;8.17;;;3.90;;
18190;SDS011;47004;51.366;12.348;2024-01-30T07:41:03;10.43;;;4.23;;
18190;SDS011;47004;51.366;12.348;2024-01-30T07:43:05;9.23;;;4.20;;
18190;SDS011;47004;51.366;12.348;2024-01-30T07:45:07;11.00;;;4.40;;
18190;SDS011;47004;51.366;12.348;2024-01-30T07:47:09;9.80;;;4.10;;
18190;SDS011;47004;51.366;12.348;2024-01-30T07:49:13;9.83;;;4.63;;
18190;SDS011;47004;51.366;12.348;2024-01-30T07:51:15;8.73;;;4.17;;
18190;SDS011;47004;51.366;12.348;2024-01-30T07:53:17;9.77;;;4.10;;
18190;SDS011;47004;51.366;12.348;2024-01-30T07:55:19;11.47;;;4.30;;
18190;SDS011;47004;51.366;12.348;2024-01-30T07:57:23;10.47;;;4.37;;
18190;SDS011;47004;51.366;12.348;2024-01-30T07:59:28;8.63;;;4.60;;
18190;SDS011;47004;51.366;12.348;2024-01-30T08:01:30;10.67;;;4.43;;
18190;SDS011;47004;51.366;12.348;2024-01-30T08:03:34;12.57;;;4.80;;
18190;SDS011;47004;51.366;12.348;2024-01-30T08:05:38;8.33;;;4.20;;
18190;SDS011;47004;51.366;12.348;2024-01-30T08:07:40;8.07;;;4.20;;
18190;SDS011;47004;51.366;12.348;2024-01-30T08:09:42;7.40;;;3.70;;
18190;SDS011;47004;51.366;12.348;2024-01-30T08:11:43;8.10;;;4.03;;
18190;SDS011;47004;51.366;12.348;2024-01-30T08:13:45;11.13;;;4.03;;
18190;SDS011;47004;51.366;12.348;2024-01-30T08:15:47;8.27;;;4.10;;
18190;SDS011;47004;51.366;12.348;2024-01-30T08:17:49;8.80;;;4.67;;
18190;SDS011;47004;51.366;12.348;2024-01-30T08:19:55;8.33;;;3.70;;
18190;SDS011;47004;51.366;12.348;2024-01-30T08:21:59;9.83;;;4.60;;
18190;SDS011;47004;51.366;12.348;2024-01-30T08:24:01;8.77;;;4.30;;
18190;SDS011;47004;51.366;12.348;2024-01-30T08:26:04;12.27;;;4.33;;
18190;SDS011;47004;51.366;12.348;2024-01-30T08:28:07;8.90;;;4.23;;
18190;SDS011;47004;51.366;12.348;2024-01-30T08:30:09;10.40;;;4.03;;
18190;SDS011;47004;51.366;12.348;2024-01-30T08:32:11;7.10;;;3.67;;
18190;SDS011;47004;51.366;12.348;2024-01-30T08:34:14;10.60;;;3.97;;
18190;SDS011;47004;51.366;12.348;2024-01-30T08:36:16;8.33;;;3.90;;
18190;SDS011;47004;51.366;12.348;2024-01-30T08:38:18;8.67;;;4.07;;
18190;SDS011;47004;51.366;12.348;2024-01-30T08:40:20;9.07;;;4.13;;
18190;SDS011;47004;51.366;12.348;2024-01-30T08:42:22;8.30;;;3.90;;
18190;SDS011;47004;51.366;12.348;2024-01-30T08:44:25;7.67;;;4.13;;
18190;SDS011;47004;51.366;12.348;2024-01-30T08:46:27;7.97;;;3.80;;
18190;SDS011;47004;51.366;12.348;2024-01-30T08:48:30;11.23;;;4.43;;
18190;SDS011;47004;51.366;12.348;2024-01-30T08:50:32;9.17;;;4.07;;
18190;SDS011;47004;51.366;12.348;2024-01-30T08:52:34;8.77;;;4.00;;
18190;SDS011;47004;51.366;12.348;2024-01-30T08:54:40;10.93;;;4.73;;
18190;SDS011;47004;51.366;12.348;2024-01-30T08:56:42;7.33;;;4.10;;
18190;SDS011;47004;51.366;12.348;2024-01-30T08:58:44;10.17;;;4.13;;
18190;SDS011;47004;51.366;12.348;2024-01-30T09:00:46;7.57;;;4.10;;
18190;SDS011;47004;51.366;12.348;2024-01-30T09:02:48;8.73;;;4.03;;
18190;SDS011;47004;51.366;12.348;2024-01-30T09:04:50;7.67;;;4.30;;
18190;SDS011;47004;51.366;12.348;2024-01-30T09:06:52;12.27;;;4.23;;
18190;SDS011;47004;51.366;12.348;2024-01-30T09:08:54;13.73;;;4.70;;
18190;SDS011;47004;51.366;12.348;2024-01-30T09:10:59;9.10;;;4.23;;
18190;SDS011;47004;51.366;12.348;2024-01-30T09:13:01;9.10;;;3.53;;
18190;SDS011;47004;51.366;12.348;2024-01-30T09:15:03;9.50;;;4.10;;
18190;SDS011;47004;51.366;12.348;2024-01-30T09:17:06;9.93;;;4.17;;
18190;SDS011;47004;51.366;12.348;2024-01-30T09:19:07;10.17;;;4.17;;
18190;SDS011;47004;51.366;12.348;2024-01-30T09:21:09;9.27;;;4.17;;
18190;SDS011;47004;51.366;12.348;2024-01-30T09:23:12;10.63;;;4.80;;
18190;SDS011;47004;51.366;12.348;2024-01-30T09:25:14;11.93;;;4.50;;
18190;SDS011;47004;51.366;12.348;2024-01-30T09:27:18;11.80;;;4.90;;
18190;SDS011;47004;51.366;12.348;2024-01-30T09:29:19;9.30;;;4.47;;
18190;SDS011;47004;51.366;12.348;2024-01-30T09:31:22;8.47;;;4.37;;
18190;SDS011;47004;51.366;12.348;2024-01-30T09:33:24;10.93;;;4.37;;
18190;SDS011;47004;51.366;12.348;2024-01-30T09:35:26;11.60;;;4.97;;
18190;SDS011;47004;51.366;12.348;2024-01-30T09:37:29;9.87;;;4.50;;
18190;SDS011;47004;51.366;12.348;2024-01-30T09:39:31;8.53;;;4.47;;
18190;SDS011;47004;51.366;12.348;2024-01-30T09:41:33;8.97;;;4.30;;
18190;SDS011;47004;51.366;12.348;2024-01-30T09:43:45;9.20;;;4.50;;
18190;SDS011;47004;51.366;12.348;2024-01-30T09:45:49;10.93;;;4.73;;
18190;SDS011;47004;51.366;12.348;2024-01-30T09:47:52;8.87;;;4.43;;
18190;SDS011;47004;51.366;12.348;2024-01-30T09:49:54;9.57;;;4.30;;
18190;SDS011;47004;51.366;12.348;2024-01-30T09:51:57;10.07;;;4.53;;
18190;SDS011;47004;51.366;12.348;2024-01-30T09:54:00;9.30;;;4.30;;
18190;SDS011;47004;51.366;12.348;2024-01-30T09:56:03;9.63;;;4.27;;
18190;SDS011;47004;51.366;12.348;2024-01-30T09:58:06;8.10;;;4.67;;
18190;SDS011;47004;51.366;12.348;2024-01-30T10:00:10;7.60;;;4.20;;
18190;SDS011;47004;51.366;12.348;2024-01-30T10:02:13;10.37;;;4.60;;
18190;SDS011;47004;51.366;12.348;2024-01-30T10:04:15;8.53;;;4.50;;
18190;SDS011;47004;51.366;12.348;2024-01-30T10:06:20;10.03;;;4.60;;
18190;SDS011;47004;51.366;12.348;2024-01-30T10:08:26;9.23;;;4.80;;
18190;SDS011;47004;51.366;12.348;2024-01-30T10:10:29;10.97;;;4.83;;
18190;SDS011;47004;51.366;12.348;2024-01-30T10:12:31;9.23;;;4.80;;
18190;SDS011;47004;51.366;12.348;2024-01-30T10:14:33;9.40;;;4.37;;
18190;SDS011;47004;51.366;12.348;2024-01-30T10:16:40;12.07;;;5.17;;
18190;SDS011;47004;51.366;12.348;2024-01-30T10:18:42;8.80;;;4.60;;
18190;SDS011;47004;51.366;12.348;2024-01-30T10:20:44;12.40;;;4.73;;
18190;SDS011;47004;51.366;12.348;2024-01-30T10:22:46;11.90;;;4.53;;
18190;SDS011;47004;51.366;12.348;2024-01-30T10:24:48;10.77;;;4.90;;
18190;SDS011;47004;51.366;12.348;2024-01-30T10:26:53;9.10;;;4.70;;
18190;SDS011;47004;51.366;12.348;2024-01-30T10:28:56;10.33;;;4.83;;
18190;SDS011;47004;51.366;12.348;2024-01-30T10:30:58;10.63;;;4.73;;
18190;SDS011;47004;51.366;12.348;2024-01-30T10:33:02;10.20;;;4.57;;
18190;SDS011;47004;51.366;12.348;2024-01-30T10:35:04;13.23;;;4.40;;
18190;SDS011;47004;51.366;12.348;2024-01-30T10:37:07;8.73;;;4.57;;
18190;SDS011;47004;51.366;12.348;2024-01-30T10:39:12;9.67;;;4.70;;
18190;SDS011;47004;51.366;12.348;2024-01-30T10:41:19;9.63;;;4.57;;
18190;SDS011;47004;51.366;12.348;2024-01-30T10:43:30;9.40;;;4.53;;
18190;SDS011;47004;51.366;12.348;2024-01-30T10:45:34;8.57;;;4.97;;
18190;SDS011;47004;51.366;12.348;2024-01-30T10:47:40;10.17;;;4.70;;
18190;SDS011;47004;51.366;12.348;2024-01-30T10:49:46;9.03;;;4.80;;
18190;SDS011;47004;51.366;12.348;2024-01-30T10:51:48;9.37;;;4.73;;
18190;SDS011;47004;51.366;12.348;2024-01-30T10:53:50;8.07;;;4.37;;
18190;SDS011;47004;51.366;12.348;2024-01-30T10:55:53;7.43;;;4.20;;
18190;SDS011;47004;51.366;12.348;2024-01-30T10:57:56;11.53;;;4.43;;
18190;SDS011;47004;51.366;12.348;2024-01-30T11:00:00;9.70;;;4.83;;
18190;SDS011;47004;51.366;12.348;2024-01-30T11:02:10;8.67;;;4.27;;
18190;SDS011;47004;51.366;12.348;2024-01-30T11:04:12;10.67;;;4.33;;
18190;SDS011;47004;51.366;12.348;2024-01-30T11:06:16;10.97;;;4.57;;
18190;SDS011;47004;51.366;12.348;2024-01-30T11:08:23;7.43;;;4.47;;
18190;SDS011;47004;51.366;12.348;2024-01-30T11:10:28;9.30;;;4.63;;
18190;SDS011;47004;51.366;12.348;2024-01-30T11:12:31;12.57;;;4.87;;
18190;SDS011;47004;51.366;12.348;2024-01-30T11:14:33;12.90;;;6.20;;
18190;SDS011;47004;51.366;12.348;2024-01-30T11:16:35;22.23;;;6.57;;
18190;SDS011;47004;51.366;12.348;2024-01-30T11:18:37;11.90;;;4.67;;
18190;SDS011;47004;51.366;12.348;2024-01-30T11:20:39;10.63;;;5.10;;
18190;SDS011;47004;51.366;12.348;2024-01-30T11:22:50;10.53;;;5.40;;
18190;SDS011;47004;51.366;12.348;2024-01-30T11:24:52;10.33;;;5.43;;
18190;SDS011;47004;51.366;12.348;2024-01-30T11:26:55;11.67;;;5.23;;
18190;SDS011;47004;51.366;12.348;2024-01-30T11:28:58;8.73;;;4.83;;
18190;SDS011;47004;51.366;12.348;2024-01-30T11:31:04;11.10;;;5.03;;
18190;SDS011;47004;51.366;12.348;2024-01-30T11:33:07;9.90;;;4.87;;
18190;SDS011;47004;51.366;12.348;2024-01-30T11:35:11;11.63;;;6.67;;
18190;SDS011;47004;51.366;12.348;2024-01-30T11:37:20;10.80;;;4.97;;
18190;SDS011;47004;51.366;12.348;2024-01-30T11:39:27;8.53;;;4.77;;
18190;SDS011;47004;51.366;12.348;2024-01-30T11:41:31;10.10;;;4.37;;
18190;SDS011;47004;51.366;12.348;2024-01-30T11:43:34;8.27;;;4.30;;
18190;SDS011;47004;51.366;12.348;2024-01-30T11:45:36;8.90;;;4.63;;
18190;SDS011;47004;51.366;12.348;2024-01-30T11:47:39;10.50;;;4.50;;
18190;SDS011;47004;51.366;12.348;2024-01-30T11:49:40;10.20;;;4.87;;
18190;SDS011;47004;51.366;12.348;2024-01-30T11:51:42;10.20;;;5.10;;
18190;SDS011;47004;51.366;12.348;2024-01-30T11:53:49;11.73;;;4.90;;
18190;SDS011;47004;51.366;12.348;2024-01-30T11:55:53;9.97;;;4.90;;
18190;SDS011;47004;51.366;12.348;2024-01-30T11:57:55;8.93;;;4.80;;
18190;SDS011;47004;51.366;12.348;2024-01-30T11:59:58;9.73;;;4.97;;
18190;SDS011;47004;51.366;12.348;2024-01-30T12:02:00;8.17;;;4.80;;
18190;SDS011;47004;51.366;12.348;2024-01-30T12:04:02;8.10;;;4.67;;